Time;durP1;ratioP1;P1;durP2;ratioP2;P2;SDS_P1;SDS_P2;PMS_P1;PMS_P2;Temp;Humidity;BMP_temperature;BMP_pressure;BME280_temperature;BME280_humidity;BME280_pressure;Samples;Min_cycle;Max_cycle;Signal;HPM_P1;HPM_P2
2024/02/16 00:01:15;;;;;;;19.10;15.10;;;;;;;1.40;87.98;99141.11;105230;1266;73280;-83
2024/02/16 00:03:42;;;;;;;22.80;15.00;;;;;;;1.39;88.13;99139.00;105263;1261;74149;-81
2024/02/16 00:06:10;;;;;;;20.90;15.80;;;;;;;1.39;88.36;99138.65;105147;1266;71772;-83
2024/02/16 00:08:38;;;;;;;21.20;16.20;;;;;;;1.39;87.85;99141.30;105266;1264;61254;-83
2024/02/16 00:11:05;;;;;;;21.30;15.70;;;;;;;1.39;87.84;99144.12;105297;1263;61247;-85
2024/02/16 00:13:32;;;;;;;23.30;16.80;;;;;;;1.39;88.08;99145.36;107461;1254;73049;-82
2024/02/16 00:15:59;;;;;;;22.60;14.70;;;;;;;1.39;88.33;99139.89;106080;1254;75508;-84
2024/02/16 00:18:27;;;;;;;18.80;12.90;;;;;;;1.39;88.56;99137.05;106295;1254;72986;-81
2024/02/16 00:20:54;;;;;;;18.50;13.60;;;;;;;1.40;88.28;99139.17;106162;1254;61128;-84
2024/02/16 00:23:22;;;;;;;16.50;13.50;;;;;;;1.40;88.56;99139.52;105804;1254;61205;-84
2024/02/16 00:25:49;;;;;;;15.80;12.30;;;;;;;1.40;88.55;99144.64;105921;1257;72295;-85
2024/02/16 00:28:16;;;;;;;23.00;14.30;;;;;;;1.39;88.47;99140.42;105847;1254;74204;-84
2024/02/16 00:30:43;;;;;;;15.20;12.50;;;;;;;1.37;88.31;99142.40;105667;1254;71466;-85
2024/02/16 00:33:10;;;;;;;22.00;14.70;;;;;;;1.35;88.49;99142.60;105718;1254;61068;-82
2024/02/16 00:35:37;;;;;;;22.90;15.70;;;;;;;1.32;88.21;99139.49;105796;1254;61112;-85
2024/02/16 00:38:04;;;;;;;19.40;15.30;;;;;;;1.29;88.73;99135.33;105705;1256;74962;-82
2024/02/16 00:40:32;;;;;;;26.60;18.00;;;;;;;1.24;88.68;99135.60;105535;1257;75928;-84
2024/02/16 00:43:03;;;;;;;25.50;19.00;;;;;;;1.17;88.57;99135.58;105731;1254;114479;-84
2024/02/16 00:45:30;;;;;;;29.40;20.30;;;;;;;1.11;88.72;99132.16;105597;1254;61151;-82
2024/02/16 00:47:57;;;;;;;31.90;21.00;;;;;;;1.05;89.05;99129.96;105697;1259;61185;-82
2024/02/16 00:50:26;;;;;;;26.00;19.50;;;;;;;1.01;89.28;99131.64;105718;1259;73876;-84
2024/02/16 00:52:53;;;;;;;38.00;22.90;;;;;;;0.95;89.50;99138.44;105794;1258;72717;-84
2024/02/16 00:55:20;;;;;;;25.90;19.20;;;;;;;0.89;89.47;99133.63;105541;1254;71713;-84
2024/02/16 00:57:47;;;;;;;20.50;15.60;;;;;;;0.83;90.05;99131.27;106248;1254;61197;-83
2024/02/16 01:00:15;;;;;;;18.70;13.50;;;;;;;0.77;90.25;99130.30;106595;1254;61042;-82
2024/02/16 01:02:42;;;;;;;18.80;14.40;;;;;;;0.71;90.33;99135.00;105722;1254;72207;-84
2024/02/16 01:05:10;;;;;;;20.70;13.90;;;;;;;0.66;90.82;99128.75;105588;1259;74448;-83
2024/02/16 01:07:38;;;;;;;16.00;13.30;;;;;;;0.62;91.62;99130.41;105590;1254;72220;-85
2024/02/16 01:10:07;;;;;;;18.50;13.50;;;;;;;0.58;91.73;99129.77;105560;1255;61163;-83
2024/02/16 01:12:34;;;;;;;14.30;12.50;;;;;;;0.56;92.37;99127.16;105491;1254;61064;-85
2024/02/16 01:15:01;;;;;;;14.60;12.50;;;;;;;0.55;93.24;99130.17;105661;1254;73603;-83
2024/02/16 01:17:29;;;;;;;16.30;12.70;;;;;;;0.53;93.75;99127.56;105673;1255;75142;-83
2024/02/16 01:19:57;;;;;;;14.30;12.80;;;;;;;0.51;94.26;99125.46;105656;1254;71629;-82
2024/02/16 01:22:24;;;;;;;18.20;13.00;;;;;;;0.50;95.02;99123.02;105550;1254;61097;-83
2024/02/16 01:24:51;;;;;;;14.60;12.40;;;;;;;0.49;95.23;99118.27;105533;1256;61138;-84
2024/02/16 01:27:18;;;;;;;19.40;13.00;;;;;;;0.50;95.60;99118.09;105616;1254;73733;-86
2024/02/16 01:29:45;;;;;;;20.40;13.20;;;;;;;0.50;95.37;99117.03;105559;1257;74405;-86
2024/02/16 01:32:13;;;;;;;17.50;14.00;;;;;;;0.49;95.87;99118.80;105513;1259;71548;-86
2024/02/16 01:34:41;;;;;;;15.50;13.30;;;;;;;0.47;96.09;99117.27;105649;1254;61045;-86
2024/02/16 01:37:08;;;;;;;17.60;13.30;;;;;;;0.46;96.27;99117.30;105659;1259;61125;-85
2024/02/16 01:39:35;;;;;;;18.30;12.30;;;;;;;0.44;96.15;99113.98;105436;1257;72654;-84
2024/02/16 01:42:02;;;;;;;17.50;11.80;;;;;;;0.42;96.34;99112.77;105643;1256;74124;-86
2024/02/16 01:44:54;;;;;;;14.80;12.50;;;;;;;0.39;96.70;99112.81;105536;1259;70729;-86
2024/02/16 01:47:43;;;;;;;17.10;12.80;;;;;;;0.35;96.68;99115.88;105679;1255;61068;-85
2024/02/16 01:50:11;;;;;;;17.90;14.40;;;;;;;0.30;97.12;99115.06;105492;1254;61173;-86
2024/02/16 01:52:38;;;;;;;23.60;16.70;;;;;;;0.28;97.57;99113.70;105515;1260;73838;-87
2024/02/16 01:55:08;;;;;;;25.70;16.30;;;;;;;0.25;97.65;99116.91;106995;1254;73143;-81
2024/02/16 01:57:47;;;;;;;22.50;16.00;;;;;;;0.23;98.02;99111.14;106933;1257;71724;-85
2024/02/16 02:00:14;;;;;;;24.00;16.30;;;;;;;0.21;98.39;99109.95;105639;1259;61096;-83
2024/02/16 02:02:44;;;;;;;17.10;13.30;;;;;;;0.19;98.64;99112.08;105610;1259;62707;-83
2024/02/16 02:05:12;;;;;;;17.40;13.30;;;;;;;0.18;98.67;99109.45;106038;1259;73148;-83
2024/02/16 02:07:40;;;;;;;16.10;12.70;;;;;;;0.19;99.17;99110.33;106859;1254;73329;-84
2024/02/16 02:10:07;;;;;;;14.90;13.30;;;;;;;0.20;99.25;99108.54;107085;1254;71432;-83
2024/02/16 02:12:34;;;;;;;14.50;12.90;;;;;;;0.20;99.55;99108.38;106918;1260;61112;-81
2024/02/16 02:15:02;;;;;;;19.90;13.90;;;;;;;0.20;99.42;99109.07;107153;1254;61048;-82
2024/02/16 02:17:30;;;;;;;17.90;14.20;;;;;;;0.19;99.26;99105.22;107161;1257;73692;-81
2024/02/16 02:19:57;;;;;;;14.60;13.10;;;;;;;0.19;99.45;99102.58;107119;1253;75467;-83
2024/02/16 02:22:26;;;;;;;15.80;13.70;;;;;;;0.20;99.27;99102.04;107324;1254;71563;-82
2024/02/16 02:24:55;;;;;;;17.70;13.90;;;;;;;0.18;98.77;99101.18;107361;1254;61174;-82
2024/02/16 02:27:22;;;;;;;15.30;12.90;;;;;;;0.16;98.84;99095.75;107383;1258;61228;-83
2024/02/16 02:29:49;;;;;;;18.90;13.80;;;;;;;0.13;98.91;99096.68;107353;1257;74575;-82
2024/02/16 02:32:17;;;;;;;19.30;14.00;;;;;;;0.11;98.93;99094.95;107133;1253;73098;-85
2024/02/16 02:34:44;;;;;;;16.80;12.80;;;;;;;0.09;98.77;99096.56;106057;1257;72590;-83
2024/02/16 02:37:11;;;;;;;19.00;13.60;;;;;;;0.06;99.11;99092.56;105863;1257;61151;-84
2024/02/16 02:39:38;;;;;;;17.70;14.00;;;;;;;0.01;99.25;99094.76;105793;1254;61519;-85
2024/02/16 02:42:05;;;;;;;18.50;14.40;;;;;;;-0.03;99.44;99096.41;105829;1254;72005;-82
2024/02/16 02:44:32;;;;;;;17.50;13.90;;;;;;;-0.06;99.79;99092.56;105791;1253;73927;-84
2024/02/16 02:46:59;;;;;;;16.50;13.60;;;;;;;-0.10;99.91;99098.43;105792;1258;71619;-82
2024/02/16 02:49:26;;;;;;;16.40;14.40;;;;;;;-0.13;100.00;99101.13;105836;1254;61137;-82
2024/02/16 02:51:53;;;;;;;19.40;14.90;;;;;;;-0.16;100.00;99103.10;105660;1254;61106;-82
2024/02/16 02:54:21;;;;;;;18.80;14.10;;;;;;;-0.17;100.00;99107.34;106094;1254;73356;-82
2024/02/16 02:56:48;;;;;;;17.10;13.80;;;;;;;-0.17;100.00;99109.29;108997;1253;72221;-83
2024/02/16 02:59:15;;;;;;;18.50;14.10;;;;;;;-0.15;100.00;99108.20;107759;1254;71331;-83
2024/02/16 03:01:42;;;;;;;15.00;12.60;;;;;;;-0.15;100.00;99104.85;105808;1254;61133;-83
2024/02/16 03:04:09;;;;;;;17.90;14.50;;;;;;;-0.14;100.00;99106.42;105880;1254;61084;-83
2024/02/16 03:06:36;;;;;;;16.10;13.60;;;;;;;-0.15;100.00;99106.61;106091;1259;72634;-82
2024/02/16 03:09:04;;;;;;;19.10;13.90;;;;;;;-0.16;100.00;99106.09;105658;1259;73773;-83
2024/02/16 03:11:31;;;;;;;20.20;14.70;;;;;;;-0.17;100.00;99105.94;105798;1257;72119;-84
2024/02/16 03:13:58;;;;;;;18.40;14.50;;;;;;;-0.19;100.00;99108.43;105822;1253;61122;-83
2024/02/16 03:16:25;;;;;;;19.60;14.00;;;;;;;-0.21;100.00;99113.73;105877;1257;61079;-84
2024/02/16 03:18:54;;;;;;;17.50;13.70;;;;;;;-0.22;100.00;99112.33;105882;1259;71464;-83
2024/02/16 03:21:22;;;;;;;23.40;17.40;;;;;;;-0.22;100.00;99116.04;105917;1254;75319;-82
2024/02/16 03:23:49;;;;;;;27.30;21.10;;;;;;;-0.25;100.00;99118.20;105790;1257;72643;-82
2024/02/16 03:26:16;;;;;;;26.90;19.00;;;;;;;-0.28;100.00;99114.89;105804;1254;61172;-83
2024/02/16 03:28:47;;;;;;;28.20;19.70;;;;;;;-0.31;100.00;99117.77;105882;1257;61106;-84
2024/02/16 03:31:18;;;;;;;26.60;18.90;;;;;;;-0.33;100.00;99119.02;106342;1257;72545;-83
2024/02/16 03:33:46;;;;;;;31.10;19.00;;;;;;;-0.35;100.00;99120.45;106731;1254;74017;-83
2024/02/16 03:36:14;;;;;;;23.20;17.90;;;;;;;-0.37;100.00;99123.12;106790;1254;71310;-82
2024/02/16 03:38:45;;;;;;;23.20;15.60;;;;;;;-0.39;100.00;99125.25;105819;1257;61093;-82
2024/02/16 03:41:15;;;;;;;20.20;15.90;;;;;;;-0.42;100.00;99120.90;105803;1259;61103;-84
2024/02/16 03:43:42;;;;;;;23.20;18.20;;;;;;;-0.43;100.00;99126.19;109332;1253;73276;-82
2024/02/16 03:46:10;;;;;;;23.90;17.70;;;;;;;-0.44;100.00;99129.00;107826;1254;73342;-84
2024/02/16 03:48:37;;;;;;;24.10;18.40;;;;;;;-0.46;100.00;99129.55;106114;1254;72552;-86
2024/02/16 03:51:04;;;;;;;25.60;17.20;;;;;;;-0.48;100.00;99132.23;105924;1259;61205;-84
2024/02/16 03:53:31;;;;;;;18.50;14.40;;;;;;;-0.49;100.00;99135.06;105855;1254;61097;-86
2024/02/16 03:55:58;;;;;;;22.30;15.90;;;;;;;-0.49;100.00;99128.91;106035;1257;73579;-85
2024/02/16 03:58:26;;;;;;;25.80;16.40;;;;;;;-0.51;100.00;99130.15;106333;1253;74573;-85
2024/02/16 04:00:53;;;;;;;21.00;15.90;;;;;;;-0.52;100.00;99126.66;105973;1254;71167;-85
2024/02/16 04:03:20;;;;;;;17.20;14.60;;;;;;;-0.53;100.00;99125.09;105908;1255;61290;-86
2024/02/16 04:05:48;;;;;;;16.70;15.00;;;;;;;-0.55;100.00;99126.70;105827;1255;61135;-85
2024/02/16 04:08:15;;;;;;;20.80;15.10;;;;;;;-0.58;100.00;99126.73;107092;1255;73755;-84
2024/02/16 04:10:45;;;;;;;25.90;16.50;;;;;;;-0.59;100.00;99130.80;106106;1254;73832;-85
2024/02/16 04:13:12;;;;;;;22.00;15.70;;;;;;;-0.61;100.00;99135.39;105742;1256;72804;-86
2024/02/16 04:15:39;;;;;;;18.00;15.00;;;;;;;-0.63;100.00;99129.78;105723;1254;61100;-84
2024/02/16 04:18:06;;;;;;;22.20;14.70;;;;;;;-0.64;100.00;99138.41;105772;1254;61077;-85
2024/02/16 04:20:34;;;;;;;17.60;13.70;;;;;;;-0.64;100.00;99137.71;105823;1254;72765;-83
2024/02/16 04:23:01;;;;;;;15.40;13.40;;;;;;;-0.64;100.00;99133.84;105609;1255;73349;-84
2024/02/16 04:25:28;;;;;;;17.00;13.50;;;;;;;-0.64;100.00;99135.59;105756;1254;73640;-87
2024/02/16 04:27:55;;;;;;;18.10;13.70;;;;;;;-0.65;100.00;99132.80;105664;1254;61089;-83
2024/02/16 04:30:22;;;;;;;18.80;14.00;;;;;;;-0.66;100.00;99131.39;105482;1254;61166;-82
2024/02/16 04:32:50;;;;;;;16.40;13.20;;;;;;;-0.66;100.00;99134.56;105610;1258;72275;-83
2024/02/16 04:35:17;;;;;;;17.70;14.00;;;;;;;-0.66;100.00;99139.31;105647;1255;73872;-83
2024/02/16 04:37:44;;;;;;;20.00;13.60;;;;;;;-0.67;100.00;99137.05;105544;1257;72456;-82
2024/02/16 04:40:12;;;;;;;17.70;13.90;;;;;;;-0.68;100.00;99134.41;105655;1254;61799;-83
2024/02/16 04:42:42;;;;;;;16.50;12.40;;;;;;;-0.68;100.00;99137.39;105485;1254;61090;-82
2024/02/16 04:45:13;;;;;;;20.10;15.00;;;;;;;-0.67;100.00;99138.27;105558;1257;72680;-84
2024/02/16 04:47:40;;;;;;;19.10;14.70;;;;;;;-0.66;100.00;99131.41;105489;1254;73620;-84
2024/02/16 04:50:10;;;;;;;17.20;14.60;;;;;;;-0.66;100.00;99132.98;105709;1255;72771;-83
2024/02/16 04:52:41;;;;;;;15.40;12.50;;;;;;;-0.65;100.00;99136.84;105690;1257;61180;-84
2024/02/16 04:55:08;;;;;;;16.50;13.00;;;;;;;-0.64;100.00;99140.19;105629;1257;61432;-83
2024/02/16 04:57:35;;;;;;;16.30;13.80;;;;;;;-0.64;100.00;99142.28;105732;1255;73006;-83
2024/02/16 05:00:03;;;;;;;18.90;16.30;;;;;;;-0.65;100.00;99143.17;105431;1261;74455;-83
2024/02/16 05:02:30;;;;;;;19.20;14.30;;;;;;;-0.67;100.00;99146.54;105719;1258;73532;-84
2024/02/16 05:04:57;;;;;;;16.50;14.40;;;;;;;-0.69;100.00;99147.27;105580;1255;61132;-83
2024/02/16 05:07:31;;;;;;;22.20;16.00;;;;;;;-0.71;100.00;99146.24;105607;1257;61109;-82
2024/02/16 05:09:58;;;;;;;20.40;15.50;;;;;;;-0.73;100.00;99148.91;105536;1254;73810;-85
2024/02/16 05:12:26;;;;;;;19.10;16.10;;;;;;;-0.76;100.00;99146.81;105534;1259;73781;-84
2024/02/16 05:14:54;;;;;;;19.50;16.10;;;;;;;-0.79;100.00;99145.80;108353;1255;72489;-83
2024/02/16 05:17:24;;;;;;;16.10;13.90;;;;;;;-0.81;100.00;99148.63;108414;1255;60947;-84
2024/02/16 05:19:51;;;;;;;19.50;13.20;;;;;;;-0.81;100.00;99148.29;108180;1254;61036;-85
2024/02/16 05:22:19;;;;;;;13.70;12.20;;;;;;;-0.81;100.00;99150.23;105923;1254;74264;-84
2024/02/16 05:24:46;;;;;;;16.80;14.40;;;;;;;-0.81;100.00;99148.45;105874;1258;74256;-83
2024/02/16 05:27:13;;;;;;;16.90;14.00;;;;;;;-0.82;100.00;99151.99;105714;1257;72529;-83
2024/02/16 05:29:40;;;;;;;17.70;13.10;;;;;;;-0.83;100.00;99154.30;105749;1257;62415;-82
2024/02/16 05:32:07;;;;;;;15.20;12.40;;;;;;;-0.82;100.00;99153.57;105881;1255;61055;-82
2024/02/16 05:34:37;;;;;;;16.60;13.00;;;;;;;-0.81;100.00;99153.05;105691;1259;73926;-83
2024/02/16 05:37:06;;;;;;;18.30;13.60;;;;;;;-0.80;100.00;99158.48;105674;1257;72296;-83
2024/02/16 05:39:35;;;;;;;20.10;14.10;;;;;;;-0.80;100.00;99154.25;107895;1254;74003;-82
2024/02/16 05:42:03;;;;;;;16.20;12.60;;;;;;;-0.80;100.00;99159.89;106309;1259;61666;-86
2024/02/16 05:44:32;;;;;;;12.20;10.90;;;;;;;-0.79;100.00;99157.75;105656;1259;61119;-83
2024/02/16 05:46:59;;;;;;;14.30;11.40;;;;;;;-0.77;100.00;99161.08;105821;1254;71461;-87
2024/02/16 05:49:26;;;;;;;18.40;13.30;;;;;;;-0.76;100.00;99159.84;105669;1257;73034;-85
2024/02/16 05:54:40;;;;;;;20.70;13.70;;;;;;;-0.78;100.00;99162.66;105851;1259;61836;-86
2024/02/16 05:57:08;;;;;;;13.10;11.20;;;;;;;-0.79;100.00;99164.27;105969;1254;61151;-85
2024/02/16 05:59:37;;;;;;;18.90;11.20;;;;;;;-0.79;100.00;99164.61;105832;1257;73702;-85
2024/02/16 06:02:05;;;;;;;17.30;11.10;;;;;;;-0.77;100.00;99167.60;106021;1257;74220;-85
2024/02/16 06:04:33;;;;;;;14.80;12.90;;;;;;;-0.76;100.00;99170.39;107121;1254;72280;-86
2024/02/16 06:07:04;;;;;;;21.20;14.50;;;;;;;-0.75;100.00;99178.48;106012;1258;61186;-92
2024/02/16 06:09:34;;;;;;;18.60;14.60;;;;;;;-0.74;100.00;99180.22;106360;1254;61016;-88
2024/02/16 06:12:04;;;;;;;18.60;13.50;;;;;;;-0.70;100.00;99178.94;105922;1258;72679;-91
2024/02/16 06:14:32;;;;;;;19.90;13.60;;;;;;;-0.69;100.00;99189.13;106629;1257;73683;-89
2024/02/16 06:16:59;;;;;;;22.10;14.80;;;;;;;-0.67;100.00;99188.40;106412;1257;72225;-88
2024/02/16 06:19:27;;;;;;;19.80;13.90;;;;;;;-0.66;100.00;99190.49;106352;1257;61139;-88
2024/02/16 06:21:55;;;;;;;18.30;13.90;;;;;;;-0.64;100.00;99195.40;106212;1254;61138;-89
2024/02/16 06:24:23;;;;;;;23.70;14.40;;;;;;;-0.63;100.00;99195.20;106140;1254;73653;-90
2024/02/16 06:26:54;;;;;;;21.10;13.70;;;;;;;-0.60;100.00;99199.05;105855;1262;75328;-88
2024/02/16 06:29:24;;;;;;;17.90;13.30;;;;;;;-0.59;100.00;99200.27;106023;1254;73535;-90
2024/02/16 06:31:52;;;;;;;23.60;14.50;;;;;;;-0.57;100.00;99203.95;105855;1255;61186;-90
2024/02/16 06:34:28;;;;;;;28.30;16.60;;;;;;;-0.55;100.00;99210.26;105873;1257;61119;-88
2024/02/16 06:36:56;;;;;;;31.90;19.30;;;;;;;-0.51;100.00;99208.98;105944;1257;73888;-90
2024/02/16 06:39:24;;;;;;;34.00;19.70;;;;;;;-0.46;100.00;99210.85;106137;1259;74615;-88
2024/02/16 06:41:52;;;;;;;39.50;21.10;;;;;;;-0.41;100.00;99214.49;106105;1257;71614;-89
2024/02/16 06:44:19;;;;;;;35.30;22.00;;;;;;;-0.34;100.00;99216.52;106000;1254;61038;-89
2024/02/16 06:47:06;;;;;;;37.40;20.70;;;;;;;-0.28;100.00;99214.16;105971;1261;61140;-87
2024/02/16 06:49:33;;;;;;;27.20;18.00;;;;;;;-0.24;100.00;99211.30;105963;1258;74880;-86
2024/02/16 06:52:01;;;;;;;21.90;16.80;;;;;;;-0.21;100.00;99209.84;106512;1253;75188;-88
2024/02/16 06:54:29;;;;;;;27.80;17.00;;;;;;;-0.16;100.00;99205.73;106081;1258;72570;-85
2024/02/16 06:56:56;;;;;;;26.00;17.10;;;;;;;-0.12;100.00;99206.21;105974;1255;61094;-86
2024/02/16 06:59:23;;;;;;;28.70;18.30;;;;;;;-0.08;100.00;99210.39;105836;1260;61247;-86
2024/02/16 07:01:50;;;;;;;31.10;20.30;;;;;;;-0.03;100.00;99210.67;106225;1254;73805;-88
2024/02/16 07:04:25;;;;;;;30.80;20.40;;;;;;;0.03;100.00;99210.23;108705;1257;76464;-91
2024/02/16 07:07:08;;;;;;;33.00;19.60;;;;;;;0.10;100.00;99216.12;105913;1257;71796;-88
2024/02/16 07:10:13;;;;;;;20.50;16.80;;;;;;;0.20;100.00;99218.64;106190;1259;61097;-91
2024/02/16 07:17:02;;;;;;;18.50;14.20;;;;;;;0.36;100.00;99213.11;105434;1267;73604;-89
2024/02/16 07:19:31;;;;;;;17.70;14.30;;;;;;;0.41;100.00;99214.98;104940;1268;74298;-90
2024/02/16 07:21:59;;;;;;;19.10;14.70;;;;;;;0.45;100.00;99219.16;106803;1267;74077;-90
2024/02/16 07:24:30;;;;;;;15.60;12.90;;;;;;;0.50;100.00;99220.46;105945;1267;61099;-90
2024/02/16 07:27:01;;;;;;;16.80;14.40;;;;;;;0.57;100.00;99217.19;105368;1267;61188;-90
2024/02/16 07:29:29;;;;;;;20.90;16.50;;;;;;;0.62;100.00;99217.98;105155;1267;75335;-91
2024/02/16 07:32:23;;;;;;;18.00;14.20;;;;;;;0.65;100.00;99216.70;105207;1265;73256;-89
2024/02/16 07:34:54;;;;;;;19.20;14.00;;;;;;;0.70;100.00;99219.45;105290;1273;74288;-91
2024/02/16 07:37:40;;;;;;;17.90;14.60;;;;;;;0.75;100.00;99218.67;104743;1271;62052;-89
2024/02/16 07:40:17;;;;;;;16.80;13.80;;;;;;;0.80;100.00;99217.36;107613;1271;61018;-89
2024/02/16 07:42:45;;;;;;;17.70;14.50;;;;;;;0.85;100.00;99217.79;107765;1270;72425;-87
2024/02/16 07:45:18;;;;;;;31.00;16.40;;;;;;;0.89;100.00;99219.83;106424;1271;75368;-89
2024/02/16 07:48:30;;;;;;;19.50;14.90;;;;;;;0.93;100.00;99218.73;105773;1268;72487;-91
2024/02/16 07:51:34;;;;;;;16.10;13.30;;;;;;;0.98;100.00;99219.70;105872;1274;63396;-94
2024/02/16 07:54:06;;;;;;;17.20;13.60;;;;;;;1.01;100.00;99216.98;104868;1276;61252;-92
2024/02/16 07:56:34;;;;;;;18.00;15.40;;;;;;;1.03;100.00;99219.77;104733;1272;73438;-92
2024/02/16 07:59:02;;;;;;;23.10;18.20;;;;;;;1.07;100.00;99213.19;105360;1274;74161;-93
2024/02/16 08:01:30;;;;;;;33.20;21.10;;;;;;;1.11;100.00;99214.90;107309;1271;72755;-93
2024/02/16 08:03:58;;;;;;;29.00;19.40;;;;;;;1.16;100.00;99216.20;104932;1274;61387;-92
2024/02/16 08:06:33;;;;;;;26.60;20.20;;;;;;;1.23;100.00;99213.42;107400;1271;60220;-92
2024/02/16 08:09:01;;;;;;;24.20;18.30;;;;;;;1.29;100.00;99218.61;105859;1274;72483;-92
2024/02/16 08:11:32;;;;;;;22.60;18.30;;;;;;;1.36;100.00;99217.79;105858;1265;74219;-92
2024/02/16 08:14:01;;;;;;;24.60;19.20;;;;;;;1.41;100.00;99218.03;105220;1266;74200;-91
2024/02/16 08:16:29;;;;;;;33.40;22.10;;;;;;;1.46;100.00;99214.23;105420;1268;61255;-90
2024/02/16 08:18:56;;;;;;;28.90;20.50;;;;;;;1.51;100.00;99211.84;105373;1270;61297;-91
2024/02/16 08:21:27;;;;;;;25.30;17.90;;;;;;;1.57;100.00;99216.14;105856;1269;73814;-93
2024/02/16 08:24:00;;;;;;;;;;;;;;;1.62;100.00;99212.14;105697;1262;75418;-91
2024/02/16 08:26:28;;;;;;;26.80;20.70;;;;;;;1.67;100.00;99213.46;105731;1263;73760;-90
2024/02/16 08:30:49;;;;;;;44.70;25.10;;;;;;;1.73;100.00;99216.87;106110;1267;61153;-94
2024/02/16 08:57:00;;;;;;;36.00;21.80;;;;;;;2.45;100.00;99202.39;107244;1269;73108;-88
2024/02/16 08:59:35;;;;;;;40.90;21.40;;;;;;;2.50;100.00;99205.28;104781;1273;75205;-86
2024/02/16 09:02:11;;;;;;;32.80;20.90;;;;;;;2.55;100.00;99204.81;107532;1273;72444;-85
2024/02/16 09:04:41;;;;;;;40.40;25.30;;;;;;;2.61;100.00;99207.67;106674;1274;60496;-90
2024/02/16 09:07:30;;;;;;;23.50;17.60;;;;;;;2.69;100.00;99208.73;104434;1273;61227;-83
2024/02/16 09:10:01;;;;;;;25.00;18.90;;;;;;;2.76;100.00;99211.92;105043;1278;73870;-89
2024/02/16 09:12:46;;;;;;;28.30;20.10;;;;;;;2.83;100.00;99208.20;105399;1273;73570;-91
2024/02/16 09:15:40;;;;;;;18.70;15.60;;;;;;;2.91;100.00;99207.83;105783;1273;71836;-87
2024/02/16 09:18:18;;;;;;;18.60;15.10;;;;;;;2.97;100.00;99207.33;105555;1273;63362;-87
2024/02/16 09:21:25;;;;;;;17.10;15.20;;;;;;;3.07;100.00;99204.61;104601;1280;61306;-88
2024/02/16 09:24:01;;;;;;;21.90;17.60;;;;;;;3.14;100.00;99206.35;104902;1280;72807;-86
2024/02/16 09:26:34;;;;;;;23.00;18.10;;;;;;;3.20;100.00;99209.02;104653;1278;76437;-86
2024/02/16 09:29:02;;;;;;;18.80;14.80;;;;;;;3.25;100.00;99211.20;104992;1281;73616;-85
2024/02/16 09:31:56;;;;;;;15.50;13.80;;;;;;;3.31;100.00;99210.52;104420;1279;61209;-87
2024/02/16 09:34:28;;;;;;;16.70;14.90;;;;;;;3.36;100.00;99209.48;104329;1278;61125;-88
2024/02/16 09:36:56;;;;;;;19.40;15.10;;;;;;;3.43;100.00;99203.64;104471;1280;74744;-85
2024/02/16 09:39:25;;;;;;;20.40;18.20;;;;;;;3.50;100.00;99207.88;104236;1278;73906;-88
2024/02/16 09:41:57;;;;;;;18.40;15.40;;;;;;;3.56;100.00;99211.41;105190;1279;72805;-85
2024/02/16 09:44:25;;;;;;;19.70;15.40;;;;;;;3.61;100.00;99208.61;106316;1278;60259;-86
2024/02/16 09:46:55;;;;;;;18.80;12.60;;;;;;;3.68;100.00;99207.55;106059;1279;61205;-85
2024/02/16 09:49:34;;;;;;;18.80;14.60;;;;;;;3.75;100.00;99210.88;104960;1279;73894;-87
2024/02/16 09:52:10;;;;;;;17.20;13.90;;;;;;;3.81;100.00;99212.84;104431;1274;73387;-85
2024/02/16 09:54:41;;;;;;;19.70;15.70;;;;;;;3.88;100.00;99205.19;104831;1272;72631;-86
2024/02/16 09:57:16;;;;;;;31.40;18.20;;;;;;;3.96;100.00;99204.77;104915;1273;61707;-84
2024/02/16 09:59:44;;;;;;;17.50;13.50;;;;;;;4.04;100.00;99200.14;104614;1273;61124;-84
2024/02/16 10:02:11;;;;;;;21.80;13.60;;;;;;;4.14;100.00;99199.45;104450;1273;74774;-84
2024/02/16 10:04:39;;;;;;;18.50;15.10;;;;;;;4.25;100.00;99201.28;104432;1274;74104;-86
2024/02/16 10:07:06;;;;;;;18.00;15.40;;;;;;;4.34;100.00;99196.17;104926;1274;71759;-83
2024/02/16 10:09:55;;;;;;;20.60;14.90;;;;;;;4.47;100.00;99195.96;104575;1277;61106;-85
2024/02/16 10:12:22;;;;;;;20.10;16.30;;;;;;;4.60;100.00;99192.17;107117;1273;59314;-88
2024/02/16 10:14:59;;;;;;;15.60;14.00;;;;;;;4.74;100.00;99191.73;105941;1279;73854;-89
2024/02/16 10:17:27;;;;;;;15.00;13.40;;;;;;;4.92;100.00;99192.55;105021;1273;74085;-87
2024/02/16 10:20:03;;;;;;;17.80;12.90;;;;;;;5.10;100.00;99189.45;104844;1273;73564;-90
2024/02/16 10:22:32;;;;;;;17.30;13.50;;;;;;;5.31;100.00;99187.33;104722;1275;61071;-91
2024/02/16 10:25:14;;;;;;;;;;;;;;;5.53;95.25;99183.89;104638;1273;61017;-88
2024/02/16 10:27:54;;;;;;;13.20;11.90;;;;;;;5.65;92.36;99180.05;105097;1278;72686;-90
2024/02/16 10:30:30;;;;;;;38.80;23.40;;;;;;;5.79;90.70;99176.52;105103;1274;75291;-90
2024/02/16 10:32:59;;;;;;;20.80;13.90;;;;;;;5.93;90.00;99174.56;105114;1273;73642;-89
2024/02/16 10:35:30;;;;;;;15.70;13.60;;;;;;;6.11;88.87;99166.42;105074;1277;61546;-89
2024/02/16 10:37:58;;;;;;;13.90;12.40;;;;;;;6.34;87.84;99164.30;106337;1274;61803;-90
2024/02/16 10:40:25;;;;;;;16.60;13.20;;;;;;;6.59;87.31;99166.31;104300;1273;74801;-89
2024/02/16 10:42:52;;;;;;;18.40;12.70;;;;;;;6.85;85.46;99159.55;104304;1283;73089;-87
2024/02/16 10:45:19;;;;;;;15.00;12.40;;;;;;;7.10;84.11;99155.48;104695;1273;73618;-88
2024/02/16 10:47:47;;;;;;;14.90;13.10;;;;;;;7.36;82.80;99149.20;104624;1279;61200;-88
2024/02/16 10:50:17;;;;;;;15.10;12.50;;;;;;;7.62;80.27;99140.36;104688;1274;61359;-90
2024/02/16 10:52:44;;;;;;;16.10;11.70;;;;;;;7.81;77.48;99137.01;104628;1279;73954;-90
2024/02/16 10:55:19;;;;;;;13.30;11.20;;;;;;;7.98;77.01;99135.14;105304;1273;74519;-90
2024/02/16 10:57:46;;;;;;;12.80;11.50;;;;;;;8.17;75.76;99132.81;105085;1273;73663;-86
2024/02/16 11:00:14;;;;;;;13.80;12.40;;;;;;;8.35;74.61;99134.27;104413;1274;61268;-86
2024/02/16 11:02:59;;;;;;;16.50;11.70;;;;;;;8.51;72.36;99131.19;104226;1281;61204;-84
2024/02/16 11:05:36;;;;;;;20.10;14.80;;;;;;;8.65;71.65;99123.34;105050;1275;73595;-85
2024/02/16 11:08:04;;;;;;;19.60;15.10;;;;;;;8.82;71.60;99121.09;104403;1273;74236;-85
2024/02/16 11:10:32;;;;;;;16.60;15.00;;;;;;;9.02;71.40;99114.76;104639;1273;71349;-86
2024/02/16 11:13:06;;;;;;;15.20;13.30;;;;;;;9.24;70.92;99106.99;104234;1281;61227;-83
2024/02/16 11:15:34;;;;;;;16.20;13.80;;;;;;;9.48;70.17;99101.77;105832;1273;62323;-86
2024/02/16 11:18:01;;;;;;;20.90;14.30;;;;;;;9.72;68.79;99100.67;105678;1274;73823;-83
2024/02/16 11:20:36;;;;;;;18.70;16.70;;;;;;;9.93;67.04;99096.67;105194;1273;73596;-84
2024/02/16 11:23:08;;;;;;;15.50;13.90;;;;;;;10.16;66.60;99095.56;105369;1273;72703;-85
2024/02/16 11:25:36;;;;;;;15.90;14.30;;;;;;;10.38;65.44;99091.10;105334;1273;61236;-87
2024/02/16 11:28:03;;;;;;;13.60;12.30;;;;;;;10.58;63.82;99085.13;105864;1274;61145;-85
2024/02/16 11:30:36;;;;;;;12.00;10.80;;;;;;;10.76;63.85;99080.48;105507;1279;73649;-85
2024/02/16 11:33:05;;;;;;;11.80;10.70;;;;;;;10.98;63.78;99073.27;104927;1273;73169;-88
2024/02/16 11:35:32;;;;;;;13.20;11.80;;;;;;;11.21;62.09;99067.73;104319;1274;73296;-83
2024/02/16 11:38:07;;;;;;;14.30;11.40;;;;;;;11.38;60.23;99062.80;104477;1273;61165;-83
2024/02/16 11:40:35;;;;;;;15.00;10.70;;;;;;;11.54;60.41;99060.68;107682;1273;60238;-85
2024/02/16 11:43:03;;;;;;;13.20;11.70;;;;;;;11.72;59.15;99060.48;106592;1273;73774;-84
2024/02/16 11:45:34;;;;;;;14.70;11.40;;;;;;;11.87;58.66;99064.31;104435;1273;74531;-86
2024/02/16 11:48:09;;;;;;;12.50;11.30;;;;;;;12.02;57.58;99059.68;104283;1273;72770;-85
2024/02/16 11:50:37;;;;;;;14.00;10.90;;;;;;;12.13;57.22;99061.10;105152;1273;61212;-85
2024/02/16 12:00:23;;;;;;;11.90;10.80;;;;;;;12.55;55.16;99053.98;106372;1274;70556;-88
2024/02/16 12:03:01;;;;;;;13.20;11.90;;;;;;;12.68;55.17;99048.99;104451;1283;73282;-90